Wesson, MS (39191)

4:00 AM CDT on August 01, 2014 (GMT -0500)
Brookhaven (K1R7) Elev 489 ft | 31.61 °N, 90.41 °W | Change Station

Current weather conditions updated 5 minutes ago

Light Drizzle
Light Drizzle
70 °F
Feels Like 70 °F
N
0
Wind Variable Wind from North

Today is forecast to be nearly the same temperature as yesterday. A few thunderstorms possible.

Today
High -- | Low -- °F
--% Chance of Precip.
Yesterday
High -- | Low -- °F
Precip. -- in
6:17 AM 7:57 PM
Waxing Crescent, 25% visible
Pressure 30.02 in
Visibility 3.0 miles
Clouds Few 200 ft
Scattered Clouds 3000 ft
Scattered Clouds 4300 ft
Dew Point 68 °F
Humidity 94%
Rainfall 0.01 in
Snow Depth Not available.
UV 0 out of 12
Pollen 3.20 out of 12
Air Quality Not available.
Flu Activity Not available.
METAR K1R7 010855Z AUTO 00000KT 3SM -DZ FEW002 SCT030 SCT043 21/20 A3002 RMK AO2 P0001

More Conditions Fewer Conditions

Pressure 30.02 in
Visibility 3.0 miles
Clouds Few 200 ft
Scattered Clouds 3000 ft
Scattered Clouds 4300 ft
Dew Point 68 °F
Humidity 94%
Rainfall 0.01 in
Snow Depth Not available.
UV 0 out of 12
Pollen 3.20 out of 12
Air Quality Not available.
Flu Activity Not available.
METAR K1R7 010855Z AUTO 00000KT 3SM -DZ FEW002 SCT030 SCT043 21/20 A3002 RMK AO2 P0001

More Conditions Fewer Conditions

10-Day Weather Forecast

Almanac

Astronomy

Aug. 01, 2014 Rise Set
Actual Time 6:17 AM CDT 7:57 PM CDT
Civil Twilight 5:50 AM CDT 8:24 PM CDT
Nautical Twilight 5:19 AM CDT 8:56 PM CDT
Astronomical Twilight 4:45 AM CDT 9:29 PM CDT
Moon 11:18 AM CDT 11:06 PM CDT
Length of Visible Light 14h 33m
Length of Day
13h 40m
Tomorrow will be 1m 27s shorter.
Waxing Crescent, 25% of the Moon is Illuminated
Today
Waxing Crescent
Aug 3
First Quarter
Aug 10
Full
Aug 17
Last Quarter
Aug 25
New

Today's Extremes

State Highs State Lows

Community

WunderPhotos

Upload Photos

1,739,529 photos uploaded!

Nearby

Snow Depth

Station Depth Elevation
No new snow has been reported.

Earthquake Activity

City Distance Mag. Time & Date
No recent earthquake activity has been reported nearby.
Minimum magnitude displayed is 2.5.

Coastal Water Temperatures

Place Temperature
No Stations Reporting

Nearby Weather Stations

Station Location Temp. Heat Index Dew Point Humidity Wind Precip. Elev Updated Type
Downtown (Perkins Bldg), Brookhaven, MS 71.4 °F 72 °F 65 °F 80% NNE  at  3.6 mph 0.00 in / hr 473 ft 3:59 AM CDT Normal
Stronghope, Wesson, MS 70.8 °F - 70 °F 97% NNE  at  0.0 mph 0.00 in / hr 269 ft 3:59 AM CDT Rapid Fire
East Lincoln County MS, Brookhaven, MS 68.9 °F - 66 °F 89% North  at  0.0 mph 0.00 in / hr 394 ft 4:00 AM CDT Rapid Fire
Union Church, MS 70.2 °F 70 °F 64 °F 82% North  at  0.0 mph 0.00 in / hr 515 ft 4:00 AM CDT Normal

Show More Stations Show Fewer Stations